createdAt,value
2023-02-08T00:00:04.348Z,36.15
2023-02-08T00:02:38.975Z,35.51
2023-02-08T00:05:10.593Z,36.61
2023-02-08T00:07:42.236Z,38.30
2023-02-08T00:10:14.010Z,38.43
2023-02-08T00:12:45.630Z,39.09
2023-02-08T00:15:17.300Z,40.22
2023-02-08T00:17:48.933Z,40.89
2023-02-08T00:20:20.627Z,40.18
2023-02-08T00:22:53.424Z,40.49
2023-02-08T00:25:25.108Z,41.98
2023-02-08T00:27:56.751Z,40.75
2023-02-08T00:30:28.571Z,40.76
2023-02-08T00:33:00.177Z,42.32
2023-02-08T00:35:32.020Z,42.24
2023-02-08T00:38:04.185Z,42.53
2023-02-08T00:40:36.195Z,43.74
2023-02-08T00:43:08.189Z,42.22
2023-02-08T00:45:39.775Z,43.49
2023-02-08T00:48:11.548Z,43.02
2023-02-08T00:50:43.183Z,43.44
2023-02-08T00:53:14.793Z,42.93
2023-02-08T00:55:51.781Z,44.29
2023-02-08T00:58:24.528Z,45.28
2023-02-08T01:00:56.525Z,46.12
2023-02-08T01:03:28.292Z,45.19
2023-02-08T01:06:06.269Z,45.99
2023-02-08T01:08:37.901Z,45.78
2023-02-08T01:11:13.118Z,44.61
2023-02-08T01:13:45.145Z,46.09
2023-02-08T01:16:20.765Z,45.46
2023-02-08T01:18:54.806Z,46.59
2023-02-08T01:21:32.876Z,46.02
2023-02-08T01:24:05.148Z,46.77
2023-02-08T01:26:37.145Z,47.17
2023-02-08T01:29:10.665Z,47.13
2023-02-08T01:31:44.722Z,47.38
2023-02-08T01:34:16.327Z,46.57
2023-02-08T01:36:48.413Z,46.83
2023-02-08T01:39:20.128Z,46.80
2023-02-08T01:41:51.784Z,47.71
2023-02-08T01:45:01.158Z,48.34
2023-02-08T01:47:33.698Z,47.08
2023-02-08T01:50:06.006Z,46.87
2023-02-08T01:52:38.975Z,48.80
2023-02-08T01:55:27.875Z,48.25
2023-02-08T01:58:05.760Z,49.15
2023-02-08T02:00:37.421Z,50.43
2023-02-08T02:03:09.186Z,49.73
2023-02-08T02:05:49.845Z,49.65
2023-02-08T02:08:21.769Z,49.61
2023-02-08T02:10:53.495Z,50.94
2023-02-08T02:13:27.259Z,50.68
2023-02-08T02:15:59.207Z,49.66
2023-02-08T02:18:33.014Z,49.51
2023-02-08T02:21:21.265Z,49.37
2023-02-08T02:24:38.490Z,50.35
2023-02-08T02:27:35.108Z,49.36
2023-02-08T02:30:44.242Z,48.63
2023-02-08T02:33:40.551Z,50.26
2023-02-08T02:36:18.072Z,50.16
2023-02-08T02:39:13.809Z,49.67
2023-02-08T02:41:58.423Z,49.99
2023-02-08T02:44:35.960Z,51.15
2023-02-08T02:47:39.635Z,50.55
2023-02-08T02:50:14.213Z,49.28
2023-02-08T02:53:00.978Z,50.53
2023-02-08T02:55:41.169Z,50.48
2023-02-08T02:58:16.511Z,50.20
2023-02-08T03:00:59.619Z,51.60
2023-02-08T03:03:34.396Z,50.70
2023-02-08T03:06:20.073Z,49.39
2023-02-08T03:09:25.631Z,50.25
2023-02-08T03:12:23.915Z,51.68
2023-02-08T03:15:17.703Z,51.64
2023-02-08T03:18:13.992Z,50.43
2023-02-08T03:21:06.555Z,51.61
2023-02-08T03:24:09.280Z,51.21
2023-02-08T03:26:54.035Z,50.04
2023-02-08T03:29:47.943Z,49.48
2023-02-08T03:32:28.274Z,49.31
2023-02-08T03:34:59.950Z,50.25
2023-02-08T03:37:47.738Z,48.27
2023-02-08T03:40:38.811Z,50.32
2023-02-08T03:43:40.086Z,48.87
2023-02-08T03:46:18.687Z,50.15
2023-02-08T03:48:59.345Z,50.27
2023-02-08T03:51:35.638Z,50.24
2023-02-08T03:54:13.920Z,50.98
2023-02-08T03:56:58.118Z,51.64
2023-02-08T03:59:39.519Z,50.84
2023-02-08T04:02:17.992Z,52.70
2023-02-08T04:04:52.392Z,52.47
2023-02-08T04:07:24.251Z,51.73
2023-02-08T04:09:56.115Z,52.13
2023-02-08T04:12:27.730Z,51.77
2023-02-08T04:14:59.369Z,50.98
2023-02-08T04:17:30.990Z,52.12
2023-02-08T04:20:02.628Z,51.79
2023-02-08T04:22:34.256Z,52.37
2023-02-08T04:25:06.250Z,52.51
2023-02-08T04:27:37.884Z,50.52
2023-02-08T04:30:10.088Z,50.15
2023-02-08T04:32:41.697Z,50.51
2023-02-08T04:35:13.277Z,50.31
2023-02-08T04:37:44.880Z,50.44
2023-02-08T04:40:16.842Z,50.30
2023-02-08T04:42:48.493Z,50.42
2023-02-08T04:45:20.163Z,49.02
2023-02-08T04:47:51.768Z,50.00
2023-02-08T04:50:23.418Z,50.22
2023-02-08T04:52:55.017Z,49.01
2023-02-08T04:55:26.855Z,49.50
2023-02-08T04:57:58.428Z,48.24
2023-02-08T05:00:30.440Z,48.01
2023-02-08T05:03:01.985Z,49.68
2023-02-08T05:05:33.714Z,48.67
2023-02-08T05:08:05.509Z,49.24
2023-02-08T05:10:37.226Z,48.81
2023-02-08T05:13:08.906Z,48.00
2023-02-08T05:15:40.512Z,48.15
2023-02-08T05:18:12.116Z,47.72
2023-02-08T05:20:43.704Z,48.19
2023-02-08T05:23:15.350Z,48.23
2023-02-08T05:25:46.981Z,49.31
2023-02-08T05:28:19.061Z,50.38
2023-02-08T05:30:50.768Z,49.37
2023-02-08T05:33:22.357Z,48.09
2023-02-08T05:35:53.980Z,47.48
2023-02-08T05:38:25.629Z,47.49
2023-02-08T05:40:57.246Z,47.47
2023-02-08T05:43:28.824Z,49.42
2023-02-08T05:46:00.455Z,48.21
2023-02-08T05:48:32.373Z,48.78
2023-02-08T05:51:04.133Z,48.52
2023-02-08T05:53:35.777Z,49.14
2023-02-08T05:56:07.624Z,48.73
2023-02-08T05:58:39.311Z,47.42
2023-02-08T06:01:13.207Z,48.57
2023-02-08T06:03:44.831Z,48.34
2023-02-08T06:06:16.443Z,47.70
2023-02-08T06:08:48.119Z,47.72
2023-02-08T06:11:19.905Z,48.76
2023-02-08T06:13:51.573Z,47.59
2023-02-08T06:16:23.284Z,47.33
2023-02-08T06:18:55.071Z,47.94
2023-02-08T06:21:26.659Z,47.41
2023-02-08T06:23:58.263Z,46.95
2023-02-08T06:26:35.448Z,48.03
2023-02-08T06:29:11.094Z,46.91
2023-02-08T06:31:42.825Z,47.87
2023-02-08T06:34:14.467Z,45.49
2023-02-08T06:36:46.159Z,46.16
2023-02-08T06:39:17.733Z,47.23
2023-02-08T06:41:49.292Z,46.92
2023-02-08T06:44:20.927Z,47.05
2023-02-08T06:46:52.522Z,46.57
2023-02-08T06:49:24.079Z,47.43
2023-02-08T06:51:55.772Z,45.65
2023-02-08T06:54:27.357Z,45.34
2023-02-08T06:56:58.984Z,46.70
2023-02-08T06:59:30.548Z,46.34
2023-02-08T07:02:02.239Z,46.65
2023-02-08T07:04:33.846Z,46.50
2023-02-08T07:07:05.438Z,47.55
2023-02-08T07:09:37.096Z,46.61
2023-02-08T07:12:09.476Z,46.10
2023-02-08T07:14:43.325Z,45.56
2023-02-08T07:17:15.142Z,46.21
2023-02-08T07:19:46.719Z,45.55
2023-02-08T07:22:18.496Z,45.46
2023-02-08T07:24:50.144Z,46.30
2023-02-08T07:27:21.749Z,46.30
2023-02-08T07:29:53.476Z,45.80
2023-02-08T07:32:25.279Z,46.15
2023-02-08T07:34:56.850Z,45.47
2023-02-08T07:38:20.995Z,43.90
2023-02-08T07:40:52.610Z,45.04
2023-02-08T07:43:26.376Z,45.26
2023-02-08T07:46:16.465Z,45.68
2023-02-08T07:48:48.445Z,44.48
2023-02-08T07:51:20.156Z,45.06
2023-02-08T07:53:51.802Z,46.05
2023-02-08T07:56:23.492Z,45.73
2023-02-08T07:58:55.801Z,46.19
2023-02-08T08:01:27.524Z,46.88
2023-02-08T08:03:59.171Z,47.62
2023-02-08T08:06:30.804Z,46.74
2023-02-08T08:09:02.795Z,48.31
2023-02-08T08:11:34.432Z,48.68
2023-02-08T08:14:06.080Z,49.53
2023-02-08T08:16:37.747Z,49.22
2023-02-08T08:19:09.494Z,49.58
2023-02-08T08:21:41.136Z,49.89
2023-02-08T08:24:12.824Z,50.03
2023-02-08T08:26:44.939Z,49.31
2023-02-08T08:29:16.710Z,48.42
2023-02-08T08:31:48.337Z,49.31
2023-02-08T08:34:20.111Z,48.34
2023-02-08T08:36:51.737Z,48.96
2023-02-08T08:39:24.125Z,49.20
2023-02-08T08:42:00.326Z,48.85
2023-02-08T08:44:32.308Z,48.02
2023-02-08T08:47:03.953Z,46.33
2023-02-08T08:49:35.585Z,46.08
2023-02-08T08:52:07.199Z,47.07
2023-02-08T08:54:41.423Z,46.23
2023-02-08T08:57:13.045Z,45.45
2023-02-08T08:59:44.611Z,46.41
2023-02-08T09:02:16.203Z,45.13
2023-02-08T09:04:47.995Z,44.21
2023-02-08T09:07:19.624Z,46.11
2023-02-08T09:09:51.440Z,45.05
2023-02-08T09:12:23.111Z,42.98
2023-02-08T09:14:54.712Z,42.87
2023-02-08T09:17:26.468Z,42.94
2023-02-08T09:19:58.062Z,42.68
2023-02-08T09:22:31.529Z,43.51
2023-02-08T09:25:03.447Z,42.88
2023-02-08T09:27:35.297Z,42.34
2023-02-08T09:30:08.818Z,41.91
2023-02-08T09:32:41.013Z,42.34
2023-02-08T09:35:12.665Z,42.41
2023-02-08T09:37:44.211Z,42.45
2023-02-08T09:40:25.043Z,41.18
2023-02-08T09:43:05.196Z,41.67
2023-02-08T09:45:51.141Z,41.35
2023-02-08T09:48:36.346Z,41.65
2023-02-08T09:51:26.521Z,42.94
2023-02-08T09:54:05.786Z,41.86
2023-02-08T09:56:41.991Z,39.75
2023-02-08T09:59:21.164Z,40.79
2023-02-08T10:02:00.583Z,40.01
2023-02-08T10:04:45.031Z,40.49
2023-02-08T10:07:16.624Z,40.94
2023-02-08T10:09:48.296Z,41.54
2023-02-08T10:12:32.086Z,41.11
2023-02-08T10:15:15.807Z,39.82
2023-02-08T10:17:58.254Z,39.78
2023-02-08T10:20:53.219Z,40.16
2023-02-08T10:23:49.494Z,39.27
2023-02-08T10:26:51.985Z,39.15
2023-02-08T10:29:45.541Z,38.93
2023-02-08T10:32:36.482Z,38.79
2023-02-08T10:35:39.234Z,38.94
2023-02-08T10:38:25.231Z,37.97
2023-02-08T10:41:04.601Z,39.28
2023-02-08T10:43:40.298Z,37.92
2023-02-08T10:46:33.460Z,38.94
2023-02-08T10:49:22.940Z,38.48
2023-02-08T10:51:54.632Z,39.20
2023-02-08T10:54:26.387Z,38.74
2023-02-08T10:57:14.637Z,37.66
2023-02-08T10:59:53.003Z,38.53
2023-02-08T11:02:34.677Z,38.51
2023-02-08T11:05:13.210Z,38.01
2023-02-08T11:07:44.933Z,37.88
2023-02-08T11:10:19.537Z,38.34
2023-02-08T11:13:12.976Z,37.83
2023-02-08T11:15:50.246Z,37.28
2023-02-08T11:18:32.589Z,36.29
2023-02-08T11:21:21.782Z,37.07
2023-02-08T11:23:56.835Z,38.62
2023-02-08T11:26:39.842Z,37.95
2023-02-08T11:29:21.733Z,37.52
2023-02-08T11:32:00.156Z,38.22
2023-02-08T11:34:34.670Z,37.80
2023-02-08T11:37:18.396Z,36.48
2023-02-08T11:39:54.579Z,35.10
2023-02-08T11:42:37.384Z,35.38
2023-02-08T11:45:24.445Z,34.90
2023-02-08T11:47:56.592Z,34.92
2023-02-08T11:50:36.575Z,34.63
2023-02-08T11:53:40.127Z,31.66
2023-02-08T11:56:21.525Z,33.13
2023-02-08T11:59:14.868Z,33.65
2023-02-08T12:01:46.598Z,33.15
2023-02-08T12:04:18.388Z,35.12
2023-02-08T12:07:05.400Z,33.29
2023-02-08T12:10:15.345Z,33.13
2023-02-08T12:13:11.565Z,33.51
2023-02-08T12:15:58.568Z,33.77
2023-02-08T12:18:37.024Z,35.11
2023-02-08T12:21:14.414Z,34.19
2023-02-08T12:24:01.157Z,32.41
2023-02-08T12:27:05.460Z,31.25
2023-02-08T12:29:55.317Z,34.08
2023-02-08T12:32:54.160Z,33.99
2023-02-08T12:35:51.050Z,32.13
2023-02-08T12:38:54.270Z,31.44
2023-02-08T12:41:34.880Z,31.14
2023-02-08T12:44:48.623Z,31.13
2023-02-08T12:47:26.161Z,30.71
2023-02-08T12:50:27.536Z,33.41
2023-02-08T12:53:13.567Z,31.78
2023-02-08T12:59:01.893Z,31.01
2023-02-08T13:01:48.372Z,31.05
2023-02-08T13:04:27.719Z,32.53
2023-02-08T13:07:07.142Z,31.55
2023-02-08T13:10:14.137Z,30.25
2023-02-08T13:12:52.584Z,30.92
2023-02-08T13:15:36.779Z,29.88
2023-02-08T13:18:29.936Z,31.21
2023-02-08T13:21:28.415Z,33.74
2023-02-08T13:24:00.615Z,31.31
2023-02-08T13:26:37.771Z,31.38
2023-02-08T13:29:19.313Z,31.63
2023-02-08T13:31:58.846Z,31.33
2023-02-08T13:34:49.544Z,30.28
2023-02-08T13:37:31.290Z,30.92
2023-02-08T13:40:07.579Z,29.57
2023-02-08T13:42:47.579Z,29.90
2023-02-08T13:45:40.134Z,31.27
2023-02-08T13:48:16.340Z,30.13
2023-02-08T13:50:50.675Z,31.04
2023-02-08T13:53:37.572Z,30.55
2023-02-08T13:56:11.783Z,29.75
2023-02-08T13:58:46.157Z,29.09
2023-02-08T14:01:27.719Z,29.44
2023-02-08T14:04:08.474Z,29.82
2023-02-08T14:07:24.656Z,30.38
2023-02-08T14:10:22.550Z,31.65
2023-02-08T14:13:01.362Z,30.86
2023-02-08T14:15:39.337Z,30.24
2023-02-08T14:18:26.048Z,33.04
2023-02-08T14:21:05.625Z,32.21
2023-02-08T14:23:40.571Z,30.76
2023-02-08T14:26:21.908Z,31.13
2023-02-08T14:29:02.048Z,31.74
2023-02-08T14:31:41.103Z,33.01
2023-02-08T14:34:29.775Z,33.20
2023-02-08T14:37:27.758Z,31.06
2023-02-08T14:40:23.615Z,32.12
2023-02-08T14:43:00.515Z,33.93
2023-02-08T14:45:40.404Z,31.30
2023-02-08T14:48:26.686Z,31.82
2023-02-08T14:51:18.137Z,34.21
2023-02-08T14:53:56.525Z,32.77
2023-02-08T14:56:33.608Z,33.07
2023-02-08T14:59:13.642Z,32.94
2023-02-08T15:02:12.053Z,33.90
2023-02-08T15:04:45.413Z,33.43
2023-02-08T15:07:38.507Z,32.47
2023-02-08T15:10:14.632Z,33.77
2023-02-08T15:12:56.124Z,32.59
2023-02-08T15:15:42.464Z,32.86
2023-02-08T15:18:32.237Z,35.65
2023-02-08T15:21:07.481Z,34.97
2023-02-08T15:23:39.061Z,35.12
2023-02-08T15:26:23.073Z,34.84
2023-02-08T15:28:55.653Z,35.55
2023-02-08T15:31:32.521Z,35.72
2023-02-08T15:34:04.391Z,35.30
2023-02-08T15:36:38.381Z,35.71
2023-02-08T15:39:19.048Z,37.36
2023-02-08T15:41:50.648Z,37.62
2023-02-08T15:44:25.072Z,36.39
2023-02-08T15:47:01.213Z,36.32
2023-02-08T15:49:39.901Z,35.56
2023-02-08T15:52:21.415Z,36.86
2023-02-08T15:54:53.129Z,36.49
2023-02-08T15:57:43.233Z,37.20
2023-02-08T16:00:25.929Z,37.34
2023-02-08T16:03:19.657Z,37.23
2023-02-08T16:05:59.131Z,37.79
2023-02-08T16:08:35.409Z,37.83
2023-02-08T16:11:15.853Z,37.86
2023-02-08T16:13:52.850Z,38.96
2023-02-08T16:16:35.172Z,37.79
2023-02-08T16:19:30.861Z,37.55
2023-02-08T16:22:20.758Z,36.47
2023-02-08T16:24:52.693Z,37.06
2023-02-08T16:27:27.286Z,38.37
2023-02-08T16:29:59.897Z,37.81
2023-02-08T16:32:37.298Z,38.39
2023-02-08T16:35:23.923Z,38.50
2023-02-08T16:38:01.766Z,38.02
2023-02-08T16:40:51.198Z,38.62
2023-02-08T16:43:29.348Z,39.35
2023-02-08T16:46:09.798Z,39.15
2023-02-08T16:48:43.822Z,38.34
2023-02-08T16:51:34.205Z,38.42
2023-02-08T16:54:07.548Z,38.47
2023-02-08T16:56:40.832Z,38.71
2023-02-08T16:59:13.718Z,40.32
2023-02-08T17:01:45.654Z,38.73
2023-02-08T17:04:17.339Z,38.33
2023-02-08T17:06:49.337Z,38.72
2023-02-08T17:09:20.981Z,39.07
2023-02-08T17:11:52.807Z,39.63
2023-02-08T17:14:24.445Z,40.22
2023-02-08T17:16:56.027Z,40.51
2023-02-08T17:19:27.617Z,39.97
2023-02-08T17:21:59.230Z,39.80
2023-02-08T17:24:30.788Z,39.75
2023-02-08T17:27:02.411Z,39.18
2023-02-08T17:29:33.996Z,40.62
2023-02-08T17:32:05.844Z,38.98
2023-02-08T17:34:37.402Z,39.43
2023-02-08T17:37:08.953Z,41.14
2023-02-08T17:39:40.657Z,39.98
2023-02-08T17:42:12.245Z,41.72
2023-02-08T17:44:43.834Z,41.25
2023-02-08T17:47:15.397Z,40.21
2023-02-08T17:49:47.068Z,40.65
2023-02-08T17:52:18.639Z,41.60
2023-02-08T17:54:50.246Z,42.41
2023-02-08T17:57:21.954Z,41.34
2023-02-08T17:59:53.535Z,42.79
2023-02-08T18:02:25.193Z,42.57
2023-02-08T18:04:56.742Z,41.43
2023-02-08T18:07:28.291Z,41.69
2023-02-08T18:09:59.893Z,42.10
2023-02-08T18:12:35.139Z,43.19
2023-02-08T18:15:11.258Z,43.07
2023-02-08T18:17:44.348Z,41.76
2023-02-08T18:20:17.304Z,43.77
2023-02-08T18:22:48.901Z,43.68
2023-02-08T18:25:20.703Z,44.78
2023-02-08T18:27:52.329Z,43.81
2023-02-08T18:30:23.927Z,43.65
2023-02-08T18:32:55.579Z,44.69
2023-02-08T18:35:27.169Z,44.54
2023-02-08T18:37:58.787Z,44.26
2023-02-08T18:40:32.115Z,43.90
2023-02-08T18:43:03.886Z,43.88
2023-02-08T18:45:35.481Z,42.86
2023-02-08T18:48:07.079Z,44.79
2023-02-08T18:50:38.647Z,45.05
2023-02-08T18:53:10.216Z,44.97
2023-02-08T18:55:42.189Z,45.42
2023-02-08T18:58:14.010Z,43.51
2023-02-08T19:00:45.696Z,45.46
2023-02-08T19:03:19.358Z,45.39
2023-02-08T19:05:50.967Z,44.86
2023-02-08T19:08:22.563Z,44.72
2023-02-08T19:10:54.174Z,44.90
2023-02-08T19:13:25.790Z,45.43
2023-02-08T19:15:57.453Z,45.46
2023-02-08T19:18:29.060Z,44.87
2023-02-08T19:21:09.648Z,44.46
2023-02-08T19:23:41.361Z,44.74
2023-02-08T19:26:25.377Z,45.28
2023-02-08T19:28:59.536Z,44.45
2023-02-08T19:31:31.279Z,44.74
2023-02-08T19:34:04.192Z,45.26
2023-02-08T19:36:41.876Z,44.33
2023-02-08T19:39:16.494Z,45.75
2023-02-08T19:41:48.954Z,46.09
2023-02-08T19:44:21.246Z,45.38
2023-02-08T19:46:55.792Z,46.02
2023-02-08T19:49:27.477Z,45.78
2023-02-08T19:51:59.193Z,44.38
2023-02-08T19:54:30.814Z,46.46
2023-02-08T19:57:02.600Z,48.17
2023-02-08T19:59:35.405Z,46.50
2023-02-08T20:02:10.871Z,47.27
2023-02-08T20:04:42.437Z,45.67
2023-02-08T20:07:14.058Z,47.49
2023-02-08T20:09:45.633Z,46.12
2023-02-08T20:12:17.208Z,46.42
2023-02-08T20:14:48.794Z,45.40
2023-02-08T20:17:20.433Z,46.64
2023-02-08T20:19:52.094Z,46.18
2023-02-08T20:22:23.634Z,46.62
2023-02-08T20:24:55.287Z,47.98
2023-02-08T20:27:27.894Z,47.88
2023-02-08T20:30:00.324Z,46.51
2023-02-08T20:32:33.971Z,46.76
2023-02-08T20:35:08.590Z,47.21
2023-02-08T20:37:40.528Z,46.30
2023-02-08T20:40:15.222Z,45.70
2023-02-08T20:42:46.887Z,47.61
2023-02-08T20:45:18.589Z,46.33
2023-02-08T20:47:50.223Z,48.87
2023-02-08T20:50:22.322Z,47.25
2023-02-08T20:52:54.439Z,47.03
2023-02-08T20:55:26.053Z,47.66
2023-02-08T20:57:57.695Z,46.19
2023-02-08T21:00:36.767Z,46.97
2023-02-08T21:03:13.319Z,46.73
2023-02-08T21:05:44.899Z,46.95
2023-02-08T21:08:16.548Z,47.35
2023-02-08T21:10:48.246Z,47.06
2023-02-08T21:13:19.901Z,47.25
2023-02-08T21:15:51.512Z,47.08
2023-02-08T21:18:23.166Z,47.94
2023-02-08T21:20:54.793Z,48.58
2023-02-08T21:23:26.586Z,47.68
2023-02-08T21:26:00.180Z,48.33
2023-02-08T21:28:32.339Z,49.11
2023-02-08T21:31:10.633Z,47.24
2023-02-08T21:33:43.569Z,48.45
2023-02-08T21:36:19.604Z,47.64
2023-02-08T21:38:51.732Z,48.14
2023-02-08T21:41:30.319Z,47.33
2023-02-08T21:44:03.658Z,47.44
2023-02-08T21:46:35.356Z,48.01
2023-02-08T21:49:07.132Z,47.74
2023-02-08T21:51:39.556Z,48.27
2023-02-08T21:54:19.906Z,48.36
2023-02-08T21:56:51.511Z,47.48
2023-02-08T21:59:23.130Z,48.69
2023-02-08T22:01:55.012Z,49.59
2023-02-08T22:04:26.691Z,49.86
2023-02-08T22:06:58.216Z,48.54
2023-02-08T22:09:30.052Z,49.70
2023-02-08T22:12:01.674Z,47.33
2023-02-08T22:14:36.474Z,47.32
2023-02-08T22:17:08.669Z,49.14
2023-02-08T22:19:41.982Z,49.49
2023-02-08T22:22:13.578Z,49.63
2023-02-08T22:24:45.119Z,51.19
2023-02-08T22:27:16.725Z,50.39
2023-02-08T22:29:48.383Z,49.37
2023-02-08T22:32:19.991Z,50.95
2023-02-08T22:34:51.649Z,49.61
2023-02-08T22:37:23.247Z,49.56
2023-02-08T22:39:54.872Z,49.20
2023-02-08T22:42:26.704Z,49.23
2023-02-08T22:45:00.801Z,49.22
2023-02-08T22:47:33.641Z,50.28
2023-02-08T22:50:07.615Z,49.76
2023-02-08T22:52:39.325Z,48.96
2023-02-08T22:55:11.094Z,49.14
2023-02-08T22:57:42.692Z,48.61
2023-02-08T23:00:15.549Z,49.40
2023-02-08T23:02:47.227Z,49.48
2023-02-08T23:05:18.929Z,49.07
2023-02-08T23:07:50.531Z,49.13
2023-02-08T23:10:22.242Z,48.99
2023-02-08T23:12:53.838Z,48.61
2023-02-08T23:15:25.541Z,49.83
2023-02-08T23:17:57.993Z,50.26
2023-02-08T23:20:29.599Z,49.09
2023-02-08T23:23:01.278Z,48.03
2023-02-08T23:25:35.088Z,49.55
2023-02-08T23:28:12.374Z,49.38
2023-02-08T23:30:45.757Z,49.37
2023-02-08T23:33:17.927Z,49.82
2023-02-08T23:35:51.962Z,49.96
2023-02-08T23:38:23.677Z,49.17
2023-02-08T23:40:55.296Z,48.60
2023-02-08T23:43:26.895Z,50.06
2023-02-08T23:45:58.467Z,49.88
2023-02-08T23:48:30.146Z,49.97
2023-02-08T23:51:04.750Z,49.67
2023-02-08T23:53:37.529Z,50.71
2023-02-08T23:56:18.976Z,48.37
2023-02-08T23:58:54.137Z,49.39
